Data for 09/16/2007

Time Sea-Level Adjusted Pressure Absolute Pressure Temperature Relative Humidity Dew Point   
(mb) (inHg) (mb) (inHg) (C) (F) (%) (C) (F)
00:05 1017 30.03 846 24.98 15.8 60.5 30 -1.7 28.9
00:10 1017 30.03 846 24.98 15.5 59.8 30 -1.9 28.7
00:15 1017 30.03 846 24.98 15.3 59.6 31 -1.7 28.9
00:20 1017 30.03 846 24.98 14.9 58.7 33 -1.3 29.6
00:25 1017 30.03 846 24.98 14.4 57.9 31 -2.3 27.8
00:30 1017 30.03 846 24.98 14.6 58.2 30 -2.8 26.9
00:35 1017 30.03 846 24.98 14.9 58.7 29 -3 26.6
00:40 1017 30.03 846 24.98 15 59.1 29 -3 26.6
00:45 1017 30.03 846 24.98 14.8 58.7 29 -2.9 26.8
00:50 1016 30 846 24.98 14.6 58.2 32 -2 28.4
00:55 1016 30 846 24.98 13.7 56.6 34 -1.9 28.6
01:00 1016 30 846 24.98 13.1 55.6 33 -2.6 27.3
01:05 1016 30 846 24.98 13.2 55.8 32 -2.9 26.8
01:10 1016 30 846 24.98 12.9 55.3 33 -2.7 27.1
01:15 1016 30 846 24.98 12.6 54.8 33 -3 26.5
01:20 1016 30 846 24.98 12.8 55 34 -2.8 26.9
01:25 1016 30 846 24.98 12.8 55 32 -3.7 25.4
01:30 1016 30 846 24.98 13 55.5 31 -3.5 25.7
01:35 1016 30 846 24.98 13.1 55.6 32 -3.1 26.5
01:40 1016 30 846 24.98 13.4 56.1 30 -3.8 25.2
01:45 1016 30 846 24.98 13.6 56.4 30 -3.8 25.2
01:50 1016 30 846 24.98 13.4 56 31 -3.2 26.3
01:55 1016 30 846 24.98 13.4 56.1 30 -3.7 25.3
02:00 1016 30 846 24.98 13.2 55.7 30 -3.8 25.2
02:05 1016 30 846 24.98 13.2 55.8 29 -4.3 24.3
02:10 1016 30 846 24.98 13.1 55.5 32 -3.3 26.1
02:15 1016 30 846 24.98 12.6 54.7 32 -3.8 25.2
02:20 1016 30 846 24.98 12.7 54.8 31 -3.8 25.2
02:25 1016 30 845 24.95 12.8 55 33 -3.2 26.2
02:30 1016 30 845 24.95 12.5 54.5 32 -3.7 25.3
02:35 1016 30 845 24.95 12.3 54.2 33 -3.3 26.1
02:40 1016 30 845 24.95 12.1 53.8 34 -3.3 26.1
02:45 1016 30 845 24.95 11.7 53.1 36 -2.9 26.8
02:50 1016 30 845 24.95 11.5 52.6 35 -3.3 26.1
02:55 1016 30 845 24.95 11.4 52.6 33 -4.2 24.5
03:00 1016 30 845 24.95 11.7 53 33 -4 24.8
03:05 1016 30 845 24.95 11.9 53.3 33 -3.7 25.4
03:10 1016 30 845 24.95 11.5 52.7 35 -3.4 25.9
03:15 1016 30 845 24.95 11.2 52.2 34 -4.1 24.6
03:20 1016 30 845 24.95 11.4 52.4 33 -4.3 24.2
03:25 1016 30 845 24.95 11.8 53.2 31 -4.6 23.8
03:30 1016 30 845 24.95 12 53.6 32 -3.9 24.9
03:35 1016 30 845 24.95 11.9 53.3 34 -3.6 25.5
03:40 1016 30 845 24.95 11.3 52.4 34 -3.9 25
03:45 1016 30 845 24.95 11.2 52.2 35 -3.6 25.5
03:50 1016 30 845 24.95 11.1 52 37 -2.9 26.8
03:55 1016 30 845 24.95 11 51.8 37 -3 26.6
04:00 1016 30 845 24.95 10.9 51.6 36 -3.4 25.8
04:05 1016 30 845 24.95 11.1 52 35 -3.5 25.6
04:10 1016 30 845 24.95 11.3 52.4 35 -3.4 25.9
04:15 1016 30 845 24.95 11.5 52.6 36 -3.2 26.2
04:20 1015 29.97 845 24.95 11.3 52.4 36 -3.1 26.3
04:25 1015 29.97 845 24.95 11.3 52.4 36 -3.3 26
04:30 1015 29.97 845 24.95 11.3 52.4 36 -3.2 26.2
04:35 1015 29.97 845 24.95 11.3 52.4 35 -3.4 25.8
04:40 1015 29.97 845 24.95 11.6 53 35 -3.2 26.2
04:45 1015 29.97 845 24.95 11.5 52.7 35 -3.3 26.1
04:50 1015 29.97 845 24.95 11.5 52.6 35 -3.4 25.9
04:55 1015 29.97 844 24.92 11.5 52.7 35 -3.2 26.2
05:00 1015 29.97 844 24.92 11.4 52.5 35 -3.4 25.8
05:05 1015 29.97 845 24.95 11.5 52.7 35 -3.2 26.2
05:10 1015 29.97 845 24.95 11.6 52.8 35 -3.4 25.9
05:15 1015 29.97 845 24.95 11.7 53 34 -3.5 25.6
05:20 1015 29.97 845 24.95 11.7 53 33 -4.1 24.6
05:25 1015 29.97 845 24.95 12.2 54 31 -4.3 24.2
05:30 1016 30 845 24.95 13 55.5 30 -3.9 25
05:35 1016 30 845 24.95 13 55.5 32 -3.2 26.2
05:40 1016 30 845 24.95 12.3 54.2 32 -3.8 25.2
05:45 1016 30 845 24.95 11.8 53.2 33 -3.9 25
05:50 1016 30 845 24.95 11.4 52.5 36 -3.3 26.1
05:55 1016 30 845 24.95 10.9 51.5 38 -2.8 27
06:00 1016 30 845 24.95 10.3 50.5 40 -2.6 27.4
06:05 1016 30 845 24.95 10.3 50.6 36 -4 24.8
06:10 1016 30 845 24.95 10.9 51.6 35 -4 24.7
06:15 1016 30 845 24.95 10.7 51.2 39 -2.8 27
06:20 1016 30 845 24.95 10.6 51.1 33 -4.9 23.1
06:25 1015 29.97 845 24.95 11.1 52 34 -4.1 24.7
06:30 1015 29.97 845 24.95 10.7 51.2 32 -5.2 22.6
06:35 1015 29.97 845 24.95 10.9 51.7 33 -4.5 23.9
06:40 1015 29.97 845 24.95 10.6 51.1 35 -4.2 24.4
06:45 1015 29.97 845 24.95 10.9 51.5 34 -4.5 23.9
06:50 1015 29.97 845 24.95 10.8 51.4 34 -4.3 24.2
06:55 1016 30 845 24.95 10.2 50.4 36 -4.2 24.4
07:00 1015 29.97 845 24.95 9.8 49.6 33 -5.8 21.5
07:05 1015 29.97 845 24.95 10.2 50.3 32 -5.6 21.8
07:10 1015 29.97 845 24.95 10.4 50.7 33 -5 23.1
07:15 1015 29.97 845 24.95 10.3 50.5 34 -4.8 23.3
07:20 1015 29.97 845 24.95 10.1 50.2 33 -5.3 22.4
07:25 1015 29.97 845 24.95 10.1 50.2 33 -5.4 22.3
07:30 1016 30 845 24.95 9.9 49.8 34 -5.2 22.7
07:35 1016 30 845 24.95 9.8 49.7 34 -5.4 22.2
07:40 1016 30 845 24.95 10.4 50.6 30 -6.5 20.4
07:45 1016 30 845 24.95 11.1 51.9 30 -6 21.3
07:50 1015 29.97 845 24.95 11.1 51.9 30 -6 21.2
07:55 1015 29.97 845 24.95 11.2 52.1 30 -5.6 21.8
08:00 1015 29.97 845 24.95 11.3 52.3 32 -5 23.1
08:05 1015 29.97 845 24.95 11 51.9 32 -5.2 22.6
08:10 1015 29.97 845 24.95 10.8 51.5 31 -5.5 22.1
08:15 1016 30 845 24.95 11 51.8 31 -5.7 21.8
08:20 1016 30 845 24.95 11.4 52.5 31 -5.1 22.9
08:25 1016 30 845 24.95 11.8 53.2 31 -4.7 23.6
08:30 1015 29.97 845 24.95 12.1 53.8 32 -4 24.9
08:35 1015 29.97 845 24.95 12.4 54.4 33 -3.5 25.7
08:40 1015 29.97 845 24.95 12.5 54.4 33 -3.4 25.9
08:45 1015 29.97 845 24.95 12.5 54.5 34 -3.1 26.4
08:50 1015 29.97 845 24.95 12.7 54.9 34 -2.6 27.2
08:55 1015 29.97 845 24.95 13.1 55.5 35 -2.1 28.3
09:00 1015 29.97 844 24.92 13.4 56.1 34 -2.2 28.1
09:05 1015 29.97 844 24.92 13.8 56.8 32 -2.5 27.5
09:10 1015 29.97 844 24.92 14.3 57.8 31 -2.7 27.1
09:15 1015 29.97 844 24.92 15 58.9 29 -2.7 27.1
09:20 1015 29.97 844 24.92 15.3 59.6 30 -2.2 28
09:25 1015 29.97 844 24.92 15.7 60.3 29 -2.4 27.7
09:30 1015 29.97 844 24.92 16.3 61.3 27 -2.4 27.6
09:35 1015 29.97 844 24.92 16.8 62.3 27 -2.1 28.2
09:40 1015 29.97 844 24.92 17 62.7 25 -3 26.6
09:45 1015 29.97 844 24.92 17.4 63.2 24 -3.2 26.2
09:50 1015 29.97 844 24.92 17.8 64 24 -3.1 26.4
09:55 1015 29.97 844 24.92 18.2 64.7 23 -2.9 26.7
10:00 1015 29.97 844 24.92 18.5 65.4 22 -3.4 25.9
10:05 1015 29.97 844 24.92 19.2 66.6 21 -3.2 26.2
10:10 1015 29.97 844 24.92 19.4 66.9 22 -3 26.7
10:15 1015 29.97 844 24.92 19.1 66.3 22 -3.1 26.4
10:20 1015 29.97 844 24.92 19.1 66.3 22 -3.3 26
10:25 1015 29.97 844 24.92 19.3 66.8 21 -3.7 25.4
10:30 1015 29.97 844 24.92 19.4 67 21 -3.1 26.5
10:35 1015 29.97 844 24.92 19.2 66.5 21 -3.8 25.2
10:40 1015 29.97 844 24.92 19.8 67.6 20 -3.5 25.6
10:45 1015 29.97 844 24.92 20.7 69.2 20 -3 26.6
10:50 1015 29.97 844 24.92 21.2 70.2 18 -4.2 24.4
10:55 1015 29.97 844 24.92 21.4 70.6 17 -4.2 24.4
11:00 1014 29.94 844 24.92 21.5 70.6 19 -2.9 26.8
11:05 1014 29.94 844 24.92 21.7 71 18 -3.5 25.7
11:10 1014 29.94 844 24.92 21.8 71.2 19 -2.5 27.5
11:15 1014 29.94 844 24.92 21.9 71.4 20 -1.9 28.6
11:20 1014 29.94 844 24.92 21.9 71.5 21 -1.4 29.4
11:25 1014 29.94 844 24.92 21.9 71.5 20 -1.8 28.7
11:30 1014 29.94 844 24.92 22 71.6 21 -1.1 30.1
11:35 1014 29.94 844 24.92 21.7 71 22 -0.9 30.4
11:40 1014 29.94 844 24.92 21.4 70.6 22 -1 30.3
11:45 1014 29.94 844 24.92 21.5 70.8 21 -1.4 29.5
11:50 1014 29.94 844 24.92 21.1 70 21 -1.7 29
11:55 1014 29.94 844 24.92 21.3 70.4 20 -2.3 27.9
12:00 1014 29.94 844 24.92 20.6 69.1 22 -1.4 29.5
12:05 1014 29.94 843 24.89 20.2 68.3 23 -1.2 29.8
12:10 1014 29.94 843 24.89 20.1 68.1 24 -1 30.3
12:15 1014 29.94 843 24.89 19.7 67.5 26 -0.3 31.4
12:20 1014 29.94 843 24.89 19.6 67.2 25 -0.9 30.4
12:25 1014 29.94 843 24.89 20.1 68.2 23 -1.3 29.7
12:30 1014 29.94 843 24.89 20.6 69 24 -0.6 31
12:35 1014 29.94 843 24.89 20.4 68.7 25 -0.3 31.5
12:40 1014 29.94 843 24.89 20.4 68.7 22 -1.6 29.2
12:45 1014 29.94 843 24.89 21.4 70.5 20 -2.3 27.9
12:50 1014 29.94 843 24.89 22 71.6 20 -1.9 28.6
12:55 1014 29.94 843 24.89 21.6 70.9 18 -3.8 25.1
13:00 1014 29.94 843 24.89 22.3 72.1 17 -3.4 25.8
13:05 1014 29.94 843 24.89 23 73.5 16 -3.6 25.5
13:10 1014 29.94 843 24.89 23.9 74.9 14 -4.6 23.6
13:15 1014 29.94 843 24.89 24.3 75.8 14 -4.4 24.1
13:20 1014 29.94 843 24.89 23.9 74.9 17 -2.4 27.7
13:25 1014 29.94 843 24.89 22.7 72.9 19 -1.9 28.6
13:30 1014 29.94 843 24.89 22 71.5 18 -3.2 26.3
13:35 1014 29.94 843 24.89 22.7 72.9 16 -4.6 23.8
13:40 1014 29.94 843 24.89 22.8 73.1 19 -1.7 28.9
13:45 1014 29.94 843 24.89 22.2 71.9 20 -1.6 29
13:50 1013 29.91 843 24.89 21.2 70.1 27 1.7 35.1
13:55 1013 29.91 842 24.86 21.2 70.2 23 -0.7 30.7
14:00 1013 29.91 842 24.86 21.1 70 22 -1.1 30.1
14:05 1013 29.91 842 24.86 21.2 70.1 22 -1.5 29.4
14:10 1013 29.91 842 24.86 21.6 70.9 21 -1.4 29.5
14:15 1013 29.91 842 24.86 21.7 71 26 1.3 34.3
14:20 1013 29.91 842 24.86 21.4 70.6 22 -1.1 30
14:25 1013 29.91 842 24.86 21.6 70.9 20 -2 28.5
14:30 1013 29.91 842 24.86 22.6 72.6 18 -2.7 27.1
14:35 1013 29.91 842 24.86 22.4 72.3 18 -2.7 27.2
14:40 1013 29.91 842 24.86 22.7 72.8 19 -1.6 29.2
14:45 1013 29.91 842 24.86 22.1 71.8 19 -2.2 28.1
14:50 1013 29.91 842 24.86 21.6 70.8 21 -1.3 29.6
14:55 1013 29.91 842 24.86 21.5 70.7 21 -1.5 29.3
15:00 1013 29.91 842 24.86 21.9 71.3 21 -1.1 30.1
15:05 1012 29.88 842 24.86 21.7 71.1 22 -0.8 30.6
15:10 1012 29.88 842 24.86 21.8 71.2 22 -0.6 31
15:15 1012 29.88 842 24.86 22.1 71.7 20 -1.4 29.5
15:20 1013 29.91 842 24.86 22.5 72.5 19 -1.8 28.8
15:25 1013 29.91 842 24.86 22.3 72.2 21 -1.1 30
15:30 1013 29.91 842 24.86 22 71.6 22 -0.6 30.9
15:35 1013 29.91 842 24.86 21.8 71.2 21 -1.6 29.2
15:40 1013 29.91 842 24.86 21.9 71.5 22 -0.6 30.9
15:45 1013 29.91 842 24.86 22.1 71.8 23 0.3 32.5
15:50 1013 29.91 842 24.86 21.8 71.2 18 -3.1 26.4
15:55 1013 29.91 842 24.86 20.8 69.4 24 -0.4 31.2
16:00 1013 29.91 842 24.86 20.2 68.4 20 -3.2 26.3
16:05 1012 29.88 842 24.86 21 69.8 18 -4.2 24.4
16:10 1012 29.88 842 24.86 21.3 70.3 18 -3.5 25.7
16:15 1012 29.88 842 24.86 21 69.9 20 -2.8 26.9
16:20 1012 29.88 842 24.86 21 69.8 19 -3.3 26.1
16:25 1012 29.88 842 24.86 21 69.8 19 -3.3 26.1
16:30 1012 29.88 842 24.86 20.9 69.7 20 -3 26.7
16:35 1013 29.91 842 24.86 20.5 68.9 22 -1.8 28.8
16:40 1013 29.91 842 24.86 20.1 68.1 20 -3.1 26.4
16:45 1013 29.91 842 24.86 20.6 69 21 -2.6 27.2
16:50 1013 29.91 842 24.86 20.5 68.9 22 -1.6 29.1
16:55 1013 29.91 842 24.86 20.3 68.6 22 -2.2 28
17:00 1013 29.91 842 24.86 20.6 69 21 -2.1 28.2
17:05 1013 29.91 842 24.86 20.7 69.3 21 -2 28.5
17:10 1013 29.91 842 24.86 20.6 69.1 22 -1.8 28.8
17:15 1012 29.88 842 24.86 20.3 68.6 22 -2 28.4
17:20 1012 29.88 842 24.86 20.3 68.5 23 -1.7 29
17:25 1012 29.88 841 24.83 20.2 68.3 22 -2.2 28.1
17:30 1012 29.88 841 24.83 20.1 68.2 22 -2.2 28
17:35 1012 29.88 841 24.83 20.4 68.6 21 -2.4 27.7
17:40 1012 29.88 841 24.83 20.6 69 21 -2.1 28.2
17:45 1012 29.88 841 24.83 20.6 69.1 22 -1.9 28.5
17:50 1012 29.88 841 24.83 20.4 68.7 22 -2.1 28.3
17:55 1012 29.88 841 24.83 20.2 68.3 22 -2 28.4
18:00 1012 29.88 841 24.83 20.2 68.3 22 -2 28.3
18:05 1012 29.88 841 24.83 20.5 68.9 19 -3.9 24.9
18:10 1012 29.88 841 24.83 20.9 69.6 18 -3.9 25.1
18:15 1012 29.88 841 24.83 21 69.7 19 -3 26.6
18:20 1012 29.88 841 24.83 20.9 69.6 19 -3.3 26
18:25 1012 29.88 841 24.83 20.8 69.5 19 -3.2 26.3
18:30 1012 29.88 841 24.83 20.6 69.2 19 -3.8 25.2
18:35 1012 29.88 841 24.83 20.6 69.1 18 -4.3 24.3
18:40 1012 29.88 841 24.83 20.6 69 18 -4.4 24
18:45 1012 29.88 841 24.83 20.5 68.9 19 -3.8 25.1
18:50 1012 29.88 841 24.83 20.5 68.9 18 -4.2 24.4
18:55 1012 29.88 841 24.83 20.6 69.2 18 -4.1 24.7
19:00 1012 29.88 841 24.83 20.5 68.8 18 -4.2 24.4
19:05 1012 29.88 841 24.83 20.3 68.5 18 -4.5 23.8
19:10 1012 29.88 841 24.83 20.3 68.5 18 -4.6 23.8
19:15 1012 29.88 841 24.83 20.2 68.4 18 -4.5 23.9
19:20 1012 29.88 841 24.83 20.2 68.3 18 -4.5 23.9
19:25 1012 29.88 841 24.83 20.1 68.2 19 -4.2 24.5
19:30 1012 29.88 841 24.83 20 67.9 19 -4.1 24.6
19:35 1012 29.88 841 24.83 19.7 67.5 19 -4.5 23.9
19:40 1012 29.88 841 24.83 19.7 67.4 19 -4.2 24.4
19:45 1012 29.88 841 24.83 19.4 67 19 -4.5 23.9
19:50 1012 29.88 841 24.83 19.5 67 19 -4.4 24
19:55 1012 29.88 841 24.83 19.3 66.8 19 -4.6 23.7
20:00 1012 29.88 841 24.83 19.4 66.9 20 -4.3 24.2
20:05 1012 29.88 841 24.83 19 66.3 20 -4.4 24
20:10 1012 29.88 841 24.83 18.9 66 20 -4.7 23.6
20:15 1012 29.88 841 24.83 18.9 66.1 20 -4.5 23.8
20:20 1012 29.88 841 24.83 18.8 65.9 20 -4.6 23.7
20:25 1012 29.88 841 24.83 18.7 65.7 20 -4.3 24.3
20:30 1012 29.88 841 24.83 18.4 65.1 21 -4.1 24.7
20:35 1012 29.88 841 24.83 18.2 64.8 21 -4.1 24.7
20:40 1012 29.88 841 24.83 18 64.4 21 -4.3 24.3
20:45 1012 29.88 841 24.83 18.1 64.5 21 -4.2 24.5
20:50 1012 29.88 841 24.83 18 64.3 22 -4 24.9
20:55 1012 29.88 841 24.83 17.8 64 24 -3 26.6
21:00 1012 29.88 841 24.83 17.4 63.3 25 -2.8 27
21:05 1012 29.88 841 24.83 17.1 62.8 25 -2.9 26.9
21:10 1012 29.88 841 24.83 17 62.6 26 -2.5 27.6
21:15 1012 29.88 841 24.83 16.7 62.1 27 -2.3 27.9
21:20 1012 29.88 841 24.83 16.4 61.6 27 -2.3 27.8
21:25 1012 29.88 841 24.83 16.2 61.2 28 -2.4 27.6
21:30 1012 29.88 842 24.86 16.1 61 27 -2.7 27.2
21:35 1012 29.88 842 24.86 16 60.9 28 -2.6 27.3
21:40 1012 29.88 842 24.86 16.3 61.3 26 -3.2 26.2
21:45 1012 29.88 842 24.86 17 62.7 23 -4 24.8
21:50 1013 29.91 842 24.86 17.8 64 22 -4.1 24.7
21:55 1013 29.91 842 24.86 17.9 64.2 22 -3.8 25.1
22:00 1013 29.91 842 24.86 17.9 64.2 22 -4.1 24.5
22:05 1013 29.91 842 24.86 18.2 64.8 22 -4 24.8
22:10 1013 29.91 842 24.86 18.1 64.6 22 -3.6 25.5
22:15 1013 29.91 842 24.86 17.8 64 23 -3.3 26.1
22:20 1013 29.91 842 24.86 17.4 63.3 25 -2.9 26.7
22:25 1013 29.91 842 24.86 17 62.7 26 -2.5 27.5
22:30 1013 29.91 842 24.86 16.7 62 28 -1.6 29.1
22:35 1013 29.91 842 24.86 16.2 61.1 29 -1.7 29
22:40 1013 29.91 842 24.86 15.5 59.8 29 -2.4 27.7
22:45 1013 29.91 842 24.86 15.4 59.6 29 -2.6 27.3
22:50 1013 29.91 842 24.86 15.6 60 30 -1.6 29
22:55 1013 29.91 842 24.86 15.5 59.9 29 -2.4 27.7
23:00 1013 29.91 842 24.86 15.3 59.6 32 -1.1 30.1
23:05 1013 29.91 842 24.86 15.1 59.2 30 -2.2 28
23:10 1013 29.91 842 24.86 14.6 58.3 31 -2.1 28.2
23:15 1013 29.91 842 24.86 14.5 58 32 -2.2 28.1
23:20 1013 29.91 842 24.86 14.9 58.7 31 -2 28.4
23:25 1013 29.91 842 24.86 15 59 32 -1.4 29.4
23:30 1013 29.91 842 24.86 14.5 58 34 -1.2 29.8
23:35 1013 29.91 842 24.86 14.2 57.5 34 -1.5 29.3
23:40 1013 29.91 842 24.86 14.2 57.5 33 -1.8 28.7
23:45 1013 29.91 842 24.86 14.7 58.4 32 -1.7 28.9
23:50 1013 29.91 842 24.86 15 58.9 31 -1.8 28.8
23:55 1013 29.91 842 24.86 15 58.9 32 -1.5 29.2
24:00 1013 29.91 842 24.86 14.9 58.8 34 -0.8 30.6